Flight Track Log - Related Links

Times and Time Zones

All times are in EDT time to prevent confusion due to time zone crossing. See the EJA922 flight status page for this flight to view local times or setup timezone preferences in your user account.

Time Position Orientation Groundspeed Altitude Reporting Facility
EDT Latitude Longitude Course Direction KTS MPH feet Rate Location/Type
Sun 02:24:19 PM 41.8000 -87.7167 90° East 204 235 2,600  Level Chicago TRACON
Sun 02:25:25 PM 41.8000 -87.6167 90° East 248 285 4,000 824 Climbing Chicago TRACON
Sun 02:26:01 PM 41.8378 -87.5814 35° Northeast 241 277 4,000  Level Chicago Center
Sun 02:27:03 PM 41.8933 -87.5231 38° Northeast 250 288 4,000  Level Chicago Center
Sun 02:28:05 PM 41.9475 -87.4658 38° Northeast 250 288 4,000 387 Level Chicago Center
Sun 02:29:07 PM 42.0136 -87.4875 346° North 262 302 4,800 960 Climbing Chicago Center
Sun 02:30:10 PM 42.0794 -87.5239 338° Northwest 260 299 6,000 576 Climbing Chicago Center
Sun 02:31:12 PM 42.1517 -87.5642 338° Northwest 280 322 6,000  Level Chicago Center
Sun 02:32:14 PM 42.2350 -87.6133 336° Northwest 274 315 6,000 -145 Level Chicago Center
Sun 02:33:16 PM 42.3042 -87.6539 337° Northwest 273 314 5,700 -339 Descending Chicago Center
Sun 02:34:18 PM 42.3694 -87.6919 337° Northwest 271 312 5,300 145 Descending Chicago Center
Sun 02:35:20 PM 42.4506 -87.7408 336° Northwest 266 306 6,000 339 Climbing Chicago Center
Sun 02:36:22 PM 42.5189 -87.7811 337° Northwest 268 308 6,000  Level Chicago Center
Sun 02:37:24 PM 42.5867 -87.8236 335° Northwest 269 310 6,000  Level Chicago Center
Sun 02:38:26 PM 42.6461 -87.8814 324° Northwest 270 311 6,000  Level Chicago Center
Sun 02:39:28 PM 42.6919 -87.9636 307° West 273 314 6,000  Level Chicago Center
Sun 02:40:30 PM 42.7469 -88.0292 319° Northwest 267 307 6,000 -194 Level Chicago Center
Sun 02:41:32 PM 42.8333 -88.0583 346° North 261 300 5,600 -816 Descending Chicago Center
Sun 02:42:35 PM 42.9086 -88.0719 352° North 270 311 4,300 -1,344 Descending Chicago Center
Sun 02:43:37 PM 42.9694 -88.1111 335° Northwest 252 290 2,800 -1,016 Descending Chicago Center
Sun 02:44:39 PM 43.0203 -88.1472 333° Northwest 226 260 2,200 -629 Descending Chicago Center
Sun 02:45:41 PM 43.0339 -88.1928 292° West 171 197 1,500 -484 Descending Chicago Center
Sun 02:46:43 PM 43.0392 -88.2514 277° West 156 180 1,200 -290 Descending Chicago Center
Sun 02:48:00 PM 43.0333 -88.2333 289° West  Level FlightAware Approximate

Login

Don't have an account? Register now (free) for customized features, flight alerts, and more!